sensor_id;sensor_type;location;lat;lon;timestamp;temperature;humidity
31129;DHT22;17777;48.770;8.944;2024-03-25T00:01:35;11.10;51.60
31129;DHT22;17777;48.770;8.944;2024-03-25T00:04:01;11.10;52.30
31129;DHT22;17777;48.770;8.944;2024-03-25T00:06:27;11.10;51.70
31129;DHT22;17777;48.770;8.944;2024-03-25T00:08:53;11.10;51.70
31129;DHT22;17777;48.770;8.944;2024-03-25T00:11:18;11.10;51.70
31129;DHT22;17777;48.770;8.944;2024-03-25T00:13:44;11.10;51.70
31129;DHT22;17777;48.770;8.944;2024-03-25T00:16:10;11.10;51.80
31129;DHT22;17777;48.770;8.944;2024-03-25T00:18:36;11.10;52.30
31129;DHT22;17777;48.770;8.944;2024-03-25T00:21:01;11.10;51.70
31129;DHT22;17777;48.770;8.944;2024-03-25T00:23:27;11.10;51.80
31129;DHT22;17777;48.770;8.944;2024-03-25T00:25:53;11.10;51.80
31129;DHT22;17777;48.770;8.944;2024-03-25T00:28:19;11.10;51.70
31129;DHT22;17777;48.770;8.944;2024-03-25T00:30:45;11.10;51.70
31129;DHT22;17777;48.770;8.944;2024-03-25T00:33:11;11.10;51.80
31129;DHT22;17777;48.770;8.944;2024-03-25T00:35:37;11.10;51.80
31129;DHT22;17777;48.770;8.944;2024-03-25T00:38:03;11.10;51.80
31129;DHT22;17777;48.770;8.944;2024-03-25T00:40:30;11.10;51.80
31129;DHT22;17777;48.770;8.944;2024-03-25T00:42:56;11.10;51.70
31129;DHT22;17777;48.770;8.944;2024-03-25T00:45:22;11.10;51.70
31129;DHT22;17777;48.770;8.944;2024-03-25T00:47:50;11.10;51.60
31129;DHT22;17777;48.770;8.944;2024-03-25T00:50:16;11.10;51.70
31129;DHT22;17777;48.770;8.944;2024-03-25T00:52:42;11.00;51.60
31129;DHT22;17777;48.770;8.944;2024-03-25T00:55:08;11.00;51.70
31129;DHT22;17777;48.770;8.944;2024-03-25T00:57:34;11.00;51.70
31129;DHT22;17777;48.770;8.944;2024-03-25T00:59:59;11.00;51.70
31129;DHT22;17777;48.770;8.944;2024-03-25T01:02:25;11.00;51.60
31129;DHT22;17777;48.770;8.944;2024-03-25T01:04:52;11.10;51.80
31129;DHT22;17777;48.770;8.944;2024-03-25T01:07:20;11.00;51.70
31129;DHT22;17777;48.770;8.944;2024-03-25T01:09:46;11.10;51.80
31129;DHT22;17777;48.770;8.944;2024-03-25T01:12:12;11.10;51.70
31129;DHT22;17777;48.770;8.944;2024-03-25T01:14:38;11.10;51.70
31129;DHT22;17777;48.770;8.944;2024-03-25T01:17:04;11.10;51.60
31129;DHT22;17777;48.770;8.944;2024-03-25T01:19:30;11.10;51.60
31129;DHT22;17777;48.770;8.944;2024-03-25T01:21:55;11.10;51.60
31129;DHT22;17777;48.770;8.944;2024-03-25T01:24:21;11.10;51.60
31129;DHT22;17777;48.770;8.944;2024-03-25T01:26:48;11.10;51.60
31129;DHT22;17777;48.770;8.944;2024-03-25T01:29:14;11.10;51.60
31129;DHT22;17777;48.770;8.944;2024-03-25T01:31:39;11.10;51.50
31129;DHT22;17777;48.770;8.944;2024-03-25T01:34:05;11.10;51.40
31129;DHT22;17777;48.770;8.944;2024-03-25T01:36:31;11.10;51.40
31129;DHT22;17777;48.770;8.944;2024-03-25T01:38:57;11.00;51.40
31129;DHT22;17777;48.770;8.944;2024-03-25T01:41:23;11.00;51.60
31129;DHT22;17777;48.770;8.944;2024-03-25T01:43:49;11.00;51.60
31129;DHT22;17777;48.770;8.944;2024-03-25T01:46:18;11.00;51.60
31129;DHT22;17777;48.770;8.944;2024-03-25T01:48:48;11.00;51.70
31129;DHT22;17777;48.770;8.944;2024-03-25T01:51:17;11.00;51.80
31129;DHT22;17777;48.770;8.944;2024-03-25T01:53:44;11.00;51.80
31129;DHT22;17777;48.770;8.944;2024-03-25T01:56:14;10.90;51.80
31129;DHT22;17777;48.770;8.944;2024-03-25T01:58:41;11.00;51.80
31129;DHT22;17777;48.770;8.944;2024-03-25T02:01:09;11.00;51.80
31129;DHT22;17777;48.770;8.944;2024-03-25T02:03:39;11.00;51.80
31129;DHT22;17777;48.770;8.944;2024-03-25T02:06:10;11.00;51.80
31129;DHT22;17777;48.770;8.944;2024-03-25T02:08:40;11.00;51.90
31129;DHT22;17777;48.770;8.944;2024-03-25T02:11:07;11.00;51.90
31129;DHT22;17777;48.770;8.944;2024-03-25T02:13:35;11.00;51.90
31129;DHT22;17777;48.770;8.944;2024-03-25T02:16:01;11.00;52.00
31129;DHT22;17777;48.770;8.944;2024-03-25T02:18:27;11.00;52.00
31129;DHT22;17777;48.770;8.944;2024-03-25T02:20:53;11.00;51.90
31129;DHT22;17777;48.770;8.944;2024-03-25T02:23:19;10.90;51.90
31129;DHT22;17777;48.770;8.944;2024-03-25T02:25:52;10.90;51.90
31129;DHT22;17777;48.770;8.944;2024-03-25T02:28:18;11.00;52.00
31129;DHT22;17777;48.770;8.944;2024-03-25T02:30:45;10.90;51.80
31129;DHT22;17777;48.770;8.944;2024-03-25T02:33:11;11.00;51.90
31129;DHT22;17777;48.770;8.944;2024-03-25T02:35:38;11.00;51.80
31129;DHT22;17777;48.770;8.944;2024-03-25T02:38:05;10.90;51.90
31129;DHT22;17777;48.770;8.944;2024-03-25T02:40:31;10.90;51.80
31129;DHT22;17777;48.770;8.944;2024-03-25T02:42:58;10.90;51.80
31129;DHT22;17777;48.770;8.944;2024-03-25T02:45:24;10.90;51.90
31129;DHT22;17777;48.770;8.944;2024-03-25T02:47:50;10.90;51.90
31129;DHT22;17777;48.770;8.944;2024-03-25T02:50:16;10.90;51.90
31129;DHT22;17777;48.770;8.944;2024-03-25T02:52:42;10.90;51.90
31129;DHT22;17777;48.770;8.944;2024-03-25T02:55:08;10.90;51.90
31129;DHT22;17777;48.770;8.944;2024-03-25T02:57:34;10.90;51.80
31129;DHT22;17777;48.770;8.944;2024-03-25T03:00:00;10.90;51.90
31129;DHT22;17777;48.770;8.944;2024-03-25T03:02:26;10.90;51.80
31129;DHT22;17777;48.770;8.944;2024-03-25T03:04:51;10.90;51.80
31129;DHT22;17777;48.770;8.944;2024-03-25T03:07:17;10.90;51.80
31129;DHT22;17777;48.770;8.944;2024-03-25T03:09:43;10.90;51.90
31129;DHT22;17777;48.770;8.944;2024-03-25T03:12:09;10.90;51.80
31129;DHT22;17777;48.770;8.944;2024-03-25T03:14:35;10.80;51.80
31129;DHT22;17777;48.770;8.944;2024-03-25T03:17:01;10.80;51.80
31129;DHT22;17777;48.770;8.944;2024-03-25T03:19:30;10.80;51.90
31129;DHT22;17777;48.770;8.944;2024-03-25T03:21:57;10.80;52.00
31129;DHT22;17777;48.770;8.944;2024-03-25T03:24:22;10.80;52.00
31129;DHT22;17777;48.770;8.944;2024-03-25T03:26:49;10.80;52.00
31129;DHT22;17777;48.770;8.944;2024-03-25T03:29:15;10.80;52.00
31129;DHT22;17777;48.770;8.944;2024-03-25T03:31:41;10.80;52.00
31129;DHT22;17777;48.770;8.944;2024-03-25T03:34:07;10.80;52.00
31129;DHT22;17777;48.770;8.944;2024-03-25T03:36:32;10.80;52.00
31129;DHT22;17777;48.770;8.944;2024-03-25T03:38:58;10.80;52.00
31129;DHT22;17777;48.770;8.944;2024-03-25T03:41:24;10.80;52.00
31129;DHT22;17777;48.770;8.944;2024-03-25T03:43:49;10.80;52.00
31129;DHT22;17777;48.770;8.944;2024-03-25T03:46:15;10.90;52.00
31129;DHT22;17777;48.770;8.944;2024-03-25T03:48:41;10.90;52.00
31129;DHT22;17777;48.770;8.944;2024-03-25T03:51:08;10.90;51.90
31129;DHT22;17777;48.770;8.944;2024-03-25T03:53:34;10.80;52.00
31129;DHT22;17777;48.770;8.944;2024-03-25T03:56:03;10.80;51.90
31129;DHT22;17777;48.770;8.944;2024-03-25T03:58:32;10.90;52.00
31129;DHT22;17777;48.770;8.944;2024-03-25T04:00:59;10.80;51.90
31129;DHT22;17777;48.770;8.944;2024-03-25T04:03:25;10.90;52.00
31129;DHT22;17777;48.770;8.944;2024-03-25T04:05:51;10.90;51.90
31129;DHT22;17777;48.770;8.944;2024-03-25T04:08:17;10.80;51.90
31129;DHT22;17777;48.770;8.944;2024-03-25T04:10:44;10.90;51.90
31129;DHT22;17777;48.770;8.944;2024-03-25T04:13:11;10.90;51.80
31129;DHT22;17777;48.770;8.944;2024-03-25T04:15:39;10.90;51.80
31129;DHT22;17777;48.770;8.944;2024-03-25T04:18:06;10.90;51.70
31129;DHT22;17777;48.770;8.944;2024-03-25T04:20:40;10.90;51.70
31129;DHT22;17777;48.770;8.944;2024-03-25T04:23:06;10.80;51.70
31129;DHT22;17777;48.770;8.944;2024-03-25T04:25:35;10.80;51.80
31129;DHT22;17777;48.770;8.944;2024-03-25T04:28:04;10.80;51.60
31129;DHT22;17777;48.770;8.944;2024-03-25T04:30:33;10.80;51.70
31129;DHT22;17777;48.770;8.944;2024-03-25T04:32:59;10.70;51.70
31129;DHT22;17777;48.770;8.944;2024-03-25T04:35:25;10.70;51.80
31129;DHT22;17777;48.770;8.944;2024-03-25T04:37:51;10.60;51.70
31129;DHT22;17777;48.770;8.944;2024-03-25T04:40:17;10.60;51.80
31129;DHT22;17777;48.770;8.944;2024-03-25T04:42:44;10.60;51.90
31129;DHT22;17777;48.770;8.944;2024-03-25T04:45:11;10.50;51.90
31129;DHT22;17777;48.770;8.944;2024-03-25T04:47:39;10.50;52.00
31129;DHT22;17777;48.770;8.944;2024-03-25T04:50:06;10.40;52.00
31129;DHT22;17777;48.770;8.944;2024-03-25T04:52:32;10.40;52.20
31129;DHT22;17777;48.770;8.944;2024-03-25T04:54:58;10.40;52.20
31129;DHT22;17777;48.770;8.944;2024-03-25T04:57:24;10.30;52.20
31129;DHT22;17777;48.770;8.944;2024-03-25T04:59:50;10.40;52.30
31129;DHT22;17777;48.770;8.944;2024-03-25T05:02:16;10.30;52.30
31129;DHT22;17777;48.770;8.944;2024-03-25T05:04:42;10.30;52.40
31129;DHT22;17777;48.770;8.944;2024-03-25T05:07:08;10.30;52.40
31129;DHT22;17777;48.770;8.944;2024-03-25T05:09:33;10.30;52.40
31129;DHT22;17777;48.770;8.944;2024-03-25T05:11:59;10.30;52.40
31129;DHT22;17777;48.770;8.944;2024-03-25T05:14:25;10.30;52.40
31129;DHT22;17777;48.770;8.944;2024-03-25T05:16:51;10.30;52.40
31129;DHT22;17777;48.770;8.944;2024-03-25T05:19:18;10.20;52.40
31129;DHT22;17777;48.770;8.944;2024-03-25T05:21:44;10.20;52.40
31129;DHT22;17777;48.770;8.944;2024-03-25T05:24:10;10.20;52.50
31129;DHT22;17777;48.770;8.944;2024-03-25T05:26:36;10.20;52.60
31129;DHT22;17777;48.770;8.944;2024-03-25T05:29:01;10.20;52.60
31129;DHT22;17777;48.770;8.944;2024-03-25T05:31:28;10.20;52.70
31129;DHT22;17777;48.770;8.944;2024-03-25T05:33:54;10.20;52.70
31129;DHT22;17777;48.770;8.944;2024-03-25T05:36:19;10.20;52.70
31129;DHT22;17777;48.770;8.944;2024-03-25T05:38:46;10.20;52.70
31129;DHT22;17777;48.770;8.944;2024-03-25T05:41:11;10.30;52.70
31129;DHT22;17777;48.770;8.944;2024-03-25T05:43:37;10.30;52.70
31129;DHT22;17777;48.770;8.944;2024-03-25T05:46:03;10.30;52.70
31129;DHT22;17777;48.770;8.944;2024-03-25T05:48:29;10.30;52.70
31129;DHT22;17777;48.770;8.944;2024-03-25T05:51:03;10.30;52.80
31129;DHT22;17777;48.770;8.944;2024-03-25T05:53:31;10.30;53.00
31129;DHT22;17777;48.770;8.944;2024-03-25T05:55:57;10.40;52.90
31129;DHT22;17777;48.770;8.944;2024-03-25T05:58:26;10.40;52.80
31129;DHT22;17777;48.770;8.944;2024-03-25T06:00:53;10.40;52.80
31129;DHT22;17777;48.770;8.944;2024-03-25T06:03:19;10.40;52.80
31129;DHT22;17777;48.770;8.944;2024-03-25T06:05:45;10.50;52.80
31129;DHT22;17777;48.770;8.944;2024-03-25T06:08:11;10.50;52.80
31129;DHT22;17777;48.770;8.944;2024-03-25T06:10:47;10.50;52.80
31129;DHT22;17777;48.770;8.944;2024-03-25T06:13:12;10.50;52.70
31129;DHT22;17777;48.770;8.944;2024-03-25T06:15:38;10.60;52.70
31129;DHT22;17777;48.770;8.944;2024-03-25T06:18:04;10.60;52.60
31129;DHT22;17777;48.770;8.944;2024-03-25T06:20:30;10.60;52.60
31129;DHT22;17777;48.770;8.944;2024-03-25T06:22:55;10.60;52.50
31129;DHT22;17777;48.770;8.944;2024-03-25T06:25:21;10.60;52.50
31129;DHT22;17777;48.770;8.944;2024-03-25T06:27:47;10.50;52.60
31129;DHT22;17777;48.770;8.944;2024-03-25T06:30:13;10.50;52.60
31129;DHT22;17777;48.770;8.944;2024-03-25T06:32:58;10.50;52.70
31129;DHT22;17777;48.770;8.944;2024-03-25T06:35:43;10.50;52.80
31129;DHT22;17777;48.770;8.944;2024-03-25T06:38:09;10.60;52.80
31129;DHT22;17777;48.770;8.944;2024-03-25T06:40:37;10.60;52.80
31129;DHT22;17777;48.770;8.944;2024-03-25T06:43:03;10.60;52.80
31129;DHT22;17777;48.770;8.944;2024-03-25T06:45:29;10.60;52.90
31129;DHT22;17777;48.770;8.944;2024-03-25T06:47:55;10.60;52.80
31129;DHT22;17777;48.770;8.944;2024-03-25T06:50:21;10.60;52.80
31129;DHT22;17777;48.770;8.944;2024-03-25T06:52:48;10.70;52.90
31129;DHT22;17777;48.770;8.944;2024-03-25T06:55:15;10.70;52.90
31129;DHT22;17777;48.770;8.944;2024-03-25T06:57:40;10.80;53.00
31129;DHT22;17777;48.770;8.944;2024-03-25T07:00:07;10.80;53.00
31129;DHT22;17777;48.770;8.944;2024-03-25T07:02:39;10.90;52.90
31129;DHT22;17777;48.770;8.944;2024-03-25T07:05:06;11.00;52.90
31129;DHT22;17777;48.770;8.944;2024-03-25T07:07:32;11.00;52.80
31129;DHT22;17777;48.770;8.944;2024-03-25T07:09:59;11.10;52.90
31129;DHT22;17777;48.770;8.944;2024-03-25T07:12:26;11.20;52.90
31129;DHT22;17777;48.770;8.944;2024-03-25T07:14:52;11.20;52.90
31129;DHT22;17777;48.770;8.944;2024-03-25T07:17:18;11.30;52.70
31129;DHT22;17777;48.770;8.944;2024-03-25T07:19:44;11.40;52.60
31129;DHT22;17777;48.770;8.944;2024-03-25T07:22:10;11.40;52.60
31129;DHT22;17777;48.770;8.944;2024-03-25T07:24:36;11.40;52.60
31129;DHT22;17777;48.770;8.944;2024-03-25T07:27:02;11.50;52.70
31129;DHT22;17777;48.770;8.944;2024-03-25T07:29:28;11.50;52.60
31129;DHT22;17777;48.770;8.944;2024-03-25T07:31:54;11.60;52.50
31129;DHT22;17777;48.770;8.944;2024-03-25T07:34:19;11.70;52.40
31129;DHT22;17777;48.770;8.944;2024-03-25T07:36:45;11.70;52.40
31129;DHT22;17777;48.770;8.944;2024-03-25T07:39:13;11.80;52.40
31129;DHT22;17777;48.770;8.944;2024-03-25T07:41:39;11.80;52.30
31129;DHT22;17777;48.770;8.944;2024-03-25T07:44:05;11.90;52.20
31129;DHT22;17777;48.770;8.944;2024-03-25T07:46:31;12.00;52.00
31129;DHT22;17777;48.770;8.944;2024-03-25T07:48:57;12.00;52.00
31129;DHT22;17777;48.770;8.944;2024-03-25T07:51:24;12.00;51.90
31129;DHT22;17777;48.770;8.944;2024-03-25T07:53:50;12.10;51.90
31129;DHT22;17777;48.770;8.944;2024-03-25T07:56:16;12.10;51.80
31129;DHT22;17777;48.770;8.944;2024-03-25T07:58:41;12.20;51.70
31129;DHT22;17777;48.770;8.944;2024-03-25T08:01:07;12.30;51.60
31129;DHT22;17777;48.770;8.944;2024-03-25T08:03:33;12.30;51.60
31129;DHT22;17777;48.770;8.944;2024-03-25T08:05:59;12.40;51.30
31129;DHT22;17777;48.770;8.944;2024-03-25T08:08:25;12.40;51.00
31129;DHT22;17777;48.770;8.944;2024-03-25T08:10:51;12.50;50.70
31129;DHT22;17777;48.770;8.944;2024-03-25T08:13:18;12.50;50.70
31129;DHT22;17777;48.770;8.944;2024-03-25T08:15:47;12.50;50.50
31129;DHT22;17777;48.770;8.944;2024-03-25T08:18:13;12.50;50.60
31129;DHT22;17777;48.770;8.944;2024-03-25T08:20:38;12.50;50.70
31129;DHT22;17777;48.770;8.944;2024-03-25T08:23:04;12.50;50.60
31129;DHT22;17777;48.770;8.944;2024-03-25T08:25:30;12.60;50.50
31129;DHT22;17777;48.770;8.944;2024-03-25T08:27:57;12.70;50.50
31129;DHT22;17777;48.770;8.944;2024-03-25T08:30:24;12.80;50.50
31129;DHT22;17777;48.770;8.944;2024-03-25T08:32:50;12.80;50.30
31129;DHT22;17777;48.770;8.944;2024-03-25T08:35:17;12.90;50.30
31129;DHT22;17777;48.770;8.944;2024-03-25T08:37:42;13.00;50.30
31129;DHT22;17777;48.770;8.944;2024-03-25T08:40:09;13.00;50.10
31129;DHT22;17777;48.770;8.944;2024-03-25T08:42:35;13.20;50.00
31129;DHT22;17777;48.770;8.944;2024-03-25T08:45:01;13.20;50.00
31129;DHT22;17777;48.770;8.944;2024-03-25T08:47:26;13.30;50.00
31129;DHT22;17777;48.770;8.944;2024-03-25T08:49:52;13.40;49.80
31129;DHT22;17777;48.770;8.944;2024-03-25T08:52:18;13.50;49.60
31129;DHT22;17777;48.770;8.944;2024-03-25T08:54:44;13.60;49.40
31129;DHT22;17777;48.770;8.944;2024-03-25T08:57:09;13.70;49.20
31129;DHT22;17777;48.770;8.944;2024-03-25T08:59:35;13.80;48.70
31129;DHT22;17777;48.770;8.944;2024-03-25T09:02:01;13.80;48.40
31129;DHT22;17777;48.770;8.944;2024-03-25T09:04:27;13.90;48.20
31129;DHT22;17777;48.770;8.944;2024-03-25T09:06:52;14.00;48.10
31129;DHT22;17777;48.770;8.944;2024-03-25T09:09:18;14.00;47.90
31129;DHT22;17777;48.770;8.944;2024-03-25T09:12:02;14.10;47.90
31129;DHT22;17777;48.770;8.944;2024-03-25T09:14:28;14.20;47.70
31129;DHT22;17777;48.770;8.944;2024-03-25T09:16:54;14.30;47.60
31129;DHT22;17777;48.770;8.944;2024-03-25T09:19:20;14.30;47.50
31129;DHT22;17777;48.770;8.944;2024-03-25T09:21:45;14.40;47.50
31129;DHT22;17777;48.770;8.944;2024-03-25T09:24:11;14.40;47.40
31129;DHT22;17777;48.770;8.944;2024-03-25T09:26:37;14.50;47.20
31129;DHT22;17777;48.770;8.944;2024-03-25T09:29:03;14.50;47.10
31129;DHT22;17777;48.770;8.944;2024-03-25T09:31:28;14.50;46.80
31129;DHT22;17777;48.770;8.944;2024-03-25T09:33:54;14.50;46.70
31129;DHT22;17777;48.770;8.944;2024-03-25T09:36:20;14.50;46.50
31129;DHT22;17777;48.770;8.944;2024-03-25T09:38:48;14.50;46.50
31129;DHT22;17777;48.770;8.944;2024-03-25T09:41:13;14.50;46.60
31129;DHT22;17777;48.770;8.944;2024-03-25T09:43:44;14.50;46.40
31129;DHT22;17777;48.770;8.944;2024-03-25T09:46:13;14.60;45.80
31129;DHT22;17777;48.770;8.944;2024-03-25T09:48:40;14.60;46.10
31129;DHT22;17777;48.770;8.944;2024-03-25T09:51:07;14.60;46.00
31129;DHT22;17777;48.770;8.944;2024-03-25T09:53:34;14.70;46.40
31129;DHT22;17777;48.770;8.944;2024-03-25T09:56:00;14.80;46.10
31129;DHT22;17777;48.770;8.944;2024-03-25T09:58:27;14.80;45.90
31129;DHT22;17777;48.770;8.944;2024-03-25T10:00:54;14.80;45.80
31129;DHT22;17777;48.770;8.944;2024-03-25T10:03:21;14.90;45.90
31129;DHT22;17777;48.770;8.944;2024-03-25T10:05:47;14.90;45.70
31129;DHT22;17777;48.770;8.944;2024-03-25T10:08:13;15.00;45.60
31129;DHT22;17777;48.770;8.944;2024-03-25T10:10:38;15.00;45.30
31129;DHT22;17777;48.770;8.944;2024-03-25T10:13:05;15.00;45.00
31129;DHT22;17777;48.770;8.944;2024-03-25T10:15:32;15.00;45.00
31129;DHT22;17777;48.770;8.944;2024-03-25T10:17:58;15.00;44.90
31129;DHT22;17777;48.770;8.944;2024-03-25T10:20:24;15.00;44.80
31129;DHT22;17777;48.770;8.944;2024-03-25T10:22:51;15.10;45.00
31129;DHT22;17777;48.770;8.944;2024-03-25T10:25:25;15.10;45.00
31129;DHT22;17777;48.770;8.944;2024-03-25T10:27:59;15.20;44.40
31129;DHT22;17777;48.770;8.944;2024-03-25T10:30:26;15.20;44.90
31129;DHT22;17777;48.770;8.944;2024-03-25T10:32:59;15.30;45.60
31129;DHT22;17777;48.770;8.944;2024-03-25T10:35:31;15.30;44.30
31129;DHT22;17777;48.770;8.944;2024-03-25T10:38:06;15.40;44.60
31129;DHT22;17777;48.770;8.944;2024-03-25T10:40:34;15.50;44.80
31129;DHT22;17777;48.770;8.944;2024-03-25T10:43:08;15.50;44.90
31129;DHT22;17777;48.770;8.944;2024-03-25T10:45:40;15.60;44.70
31129;DHT22;17777;48.770;8.944;2024-03-25T10:48:17;15.70;44.80
31129;DHT22;17777;48.770;8.944;2024-03-25T10:50:46;15.80;43.90
31129;DHT22;17777;48.770;8.944;2024-03-25T10:53:14;15.90;44.20
31129;DHT22;17777;48.770;8.944;2024-03-25T10:55:42;16.00;44.00
31129;DHT22;17777;48.770;8.944;2024-03-25T10:58:10;16.10;44.00
31129;DHT22;17777;48.770;8.944;2024-03-25T11:00:37;16.10;43.60
31129;DHT22;17777;48.770;8.944;2024-03-25T11:03:04;16.10;43.30
31129;DHT22;17777;48.770;8.944;2024-03-25T11:05:30;16.20;43.30
31129;DHT22;17777;48.770;8.944;2024-03-25T11:07:56;16.20;43.30
31129;DHT22;17777;48.770;8.944;2024-03-25T11:10:29;16.20;43.50
31129;DHT22;17777;48.770;8.944;2024-03-25T11:12:55;16.40;42.50
31129;DHT22;17777;48.770;8.944;2024-03-25T11:15:21;16.50;42.50
31129;DHT22;17777;48.770;8.944;2024-03-25T11:17:50;16.50;42.40
31129;DHT22;17777;48.770;8.944;2024-03-25T11:20:16;16.50;42.00
31129;DHT22;17777;48.770;8.944;2024-03-25T11:22:52;16.50;42.30
31129;DHT22;17777;48.770;8.944;2024-03-25T11:25:20;16.50;40.90
31129;DHT22;17777;48.770;8.944;2024-03-25T11:27:47;16.50;41.70
31129;DHT22;17777;48.770;8.944;2024-03-25T11:30:13;16.40;41.70
31129;DHT22;17777;48.770;8.944;2024-03-25T11:32:44;16.40;41.50
31129;DHT22;17777;48.770;8.944;2024-03-25T11:35:11;16.30;41.40
31129;DHT22;17777;48.770;8.944;2024-03-25T11:37:41;16.30;41.90
31129;DHT22;17777;48.770;8.944;2024-03-25T11:40:08;16.20;41.20
31129;DHT22;17777;48.770;8.944;2024-03-25T11:42:38;16.20;41.70
31129;DHT22;17777;48.770;8.944;2024-03-25T11:45:15;16.20;41.60
31129;DHT22;17777;48.770;8.944;2024-03-25T11:47:45;16.20;41.70
31129;DHT22;17777;48.770;8.944;2024-03-25T11:50:17;16.20;41.90
31129;DHT22;17777;48.770;8.944;2024-03-25T11:52:44;16.20;41.70
31129;DHT22;17777;48.770;8.944;2024-03-25T11:55:10;16.20;42.00
31129;DHT22;17777;48.770;8.944;2024-03-25T11:57:38;16.20;42.20
31129;DHT22;17777;48.770;8.944;2024-03-25T12:00:05;16.20;41.80
31129;DHT22;17777;48.770;8.944;2024-03-25T12:02:42;16.20;41.80
31129;DHT22;17777;48.770;8.944;2024-03-25T12:05:12;16.30;42.00
31129;DHT22;17777;48.770;8.944;2024-03-25T12:07:38;16.30;41.90
31129;DHT22;17777;48.770;8.944;2024-03-25T12:10:04;16.40;42.20
31129;DHT22;17777;48.770;8.944;2024-03-25T12:12:49;16.40;42.10
31129;DHT22;17777;48.770;8.944;2024-03-25T12:15:20;16.40;42.20
31129;DHT22;17777;48.770;8.944;2024-03-25T12:17:46;16.40;41.80
31129;DHT22;17777;48.770;8.944;2024-03-25T12:20:12;16.40;41.80
31129;DHT22;17777;48.770;8.944;2024-03-25T12:22:41;16.40;41.90
31129;DHT22;17777;48.770;8.944;2024-03-25T12:25:08;16.40;41.80
31129;DHT22;17777;48.770;8.944;2024-03-25T12:27:35;16.40;41.90
31129;DHT22;17777;48.770;8.944;2024-03-25T12:32:41;16.40;41.60
31129;DHT22;17777;48.770;8.944;2024-03-25T12:35:15;16.40;41.00
31129;DHT22;17777;48.770;8.944;2024-03-25T12:37:43;16.50;41.30
31129;DHT22;17777;48.770;8.944;2024-03-25T12:40:25;16.50;42.40
31129;DHT22;17777;48.770;8.944;2024-03-25T12:42:54;16.50;41.60
31129;DHT22;17777;48.770;8.944;2024-03-25T12:45:21;16.60;41.00
31129;DHT22;17777;48.770;8.944;2024-03-25T12:47:48;16.60;41.40
31129;DHT22;17777;48.770;8.944;2024-03-25T12:50:17;16.60;41.60
31129;DHT22;17777;48.770;8.944;2024-03-25T12:52:44;16.60;41.40
31129;DHT22;17777;48.770;8.944;2024-03-25T12:55:10;16.60;41.40
31129;DHT22;17777;48.770;8.944;2024-03-25T12:57:36;16.60;41.80
31129;DHT22;17777;48.770;8.944;2024-03-25T13:00:02;16.60;41.20
31129;DHT22;17777;48.770;8.944;2024-03-25T13:02:30;16.70;41.20
31129;DHT22;17777;48.770;8.944;2024-03-25T13:04:56;16.70;41.10
31129;DHT22;17777;48.770;8.944;2024-03-25T13:07:22;16.70;41.00
31129;DHT22;17777;48.770;8.944;2024-03-25T13:09:48;16.70;41.10
31129;DHT22;17777;48.770;8.944;2024-03-25T13:12:13;16.80;41.00
31129;DHT22;17777;48.770;8.944;2024-03-25T13:14:39;16.80;40.80
31129;DHT22;17777;48.770;8.944;2024-03-25T13:17:05;16.80;40.70
31129;DHT22;17777;48.770;8.944;2024-03-25T13:19:31;16.80;40.80
31129;DHT22;17777;48.770;8.944;2024-03-25T13:21:57;16.90;41.00
31129;DHT22;17777;48.770;8.944;2024-03-25T13:24:22;16.90;40.90
31129;DHT22;17777;48.770;8.944;2024-03-25T13:26:48;16.90;40.60
31129;DHT22;17777;48.770;8.944;2024-03-25T13:29:14;17.00;40.50
31129;DHT22;17777;48.770;8.944;2024-03-25T13:31:40;17.00;40.40
31129;DHT22;17777;48.770;8.944;2024-03-25T13:34:06;17.00;40.10
31129;DHT22;17777;48.770;8.944;2024-03-25T13:36:32;17.00;40.20
31129;DHT22;17777;48.770;8.944;2024-03-25T13:38:57;17.10;40.30
31129;DHT22;17777;48.770;8.944;2024-03-25T13:41:23;17.10;40.30
31129;DHT22;17777;48.770;8.944;2024-03-25T13:43:50;17.20;40.50
31129;DHT22;17777;48.770;8.944;2024-03-25T13:46:16;17.20;39.80
31129;DHT22;17777;48.770;8.944;2024-03-25T13:48:42;17.30;38.70
31129;DHT22;17777;48.770;8.944;2024-03-25T13:51:08;17.30;39.00
31129;DHT22;17777;48.770;8.944;2024-03-25T13:53:34;17.30;38.70
31129;DHT22;17777;48.770;8.944;2024-03-25T13:55:59;17.40;38.80
31129;DHT22;17777;48.770;8.944;2024-03-25T13:58:26;17.40;38.60
31129;DHT22;17777;48.770;8.944;2024-03-25T14:00:52;17.40;38.90
31129;DHT22;17777;48.770;8.944;2024-03-25T14:03:18;17.40;39.00
31129;DHT22;17777;48.770;8.944;2024-03-25T14:05:45;17.40;38.40
31129;DHT22;17777;48.770;8.944;2024-03-25T14:08:11;17.50;38.50
31129;DHT22;17777;48.770;8.944;2024-03-25T14:10:37;17.50;38.60
31129;DHT22;17777;48.770;8.944;2024-03-25T14:13:03;17.50;38.00
31129;DHT22;17777;48.770;8.944;2024-03-25T14:15:31;17.50;37.70
31129;DHT22;17777;48.770;8.944;2024-03-25T14:17:57;17.50;38.10
31129;DHT22;17777;48.770;8.944;2024-03-25T14:20:23;17.60;37.20
31129;DHT22;17777;48.770;8.944;2024-03-25T14:22:48;17.60;37.80
31129;DHT22;17777;48.770;8.944;2024-03-25T14:25:14;17.60;37.60
31129;DHT22;17777;48.770;8.944;2024-03-25T14:27:41;17.60;37.80
31129;DHT22;17777;48.770;8.944;2024-03-25T14:30:07;17.60;37.70
31129;DHT22;17777;48.770;8.944;2024-03-25T14:32:36;17.60;37.80
31129;DHT22;17777;48.770;8.944;2024-03-25T14:35:04;17.60;37.70
31129;DHT22;17777;48.770;8.944;2024-03-25T14:37:32;17.60;37.90
31129;DHT22;17777;48.770;8.944;2024-03-25T14:39:58;17.70;37.40
31129;DHT22;17777;48.770;8.944;2024-03-25T14:42:24;17.70;37.50
31129;DHT22;17777;48.770;8.944;2024-03-25T14:44:50;17.70;37.30
31129;DHT22;17777;48.770;8.944;2024-03-25T14:47:16;17.70;37.10
31129;DHT22;17777;48.770;8.944;2024-03-25T14:49:42;17.70;37.40
31129;DHT22;17777;48.770;8.944;2024-03-25T14:52:07;17.70;36.60
31129;DHT22;17777;48.770;8.944;2024-03-25T14:54:34;17.70;36.90
31129;DHT22;17777;48.770;8.944;2024-03-25T14:57:00;17.70;36.80
31129;DHT22;17777;48.770;8.944;2024-03-25T14:59:27;17.70;36.50
31129;DHT22;17777;48.770;8.944;2024-03-25T15:01:54;17.70;36.30
31129;DHT22;17777;48.770;8.944;2024-03-25T15:04:20;17.70;36.20
31129;DHT22;17777;48.770;8.944;2024-03-25T15:06:45;17.70;36.80
31129;DHT22;17777;48.770;8.944;2024-03-25T15:09:11;17.70;36.70
31129;DHT22;17777;48.770;8.944;2024-03-25T15:11:37;17.70;36.60
31129;DHT22;17777;48.770;8.944;2024-03-25T15:14:03;17.70;35.90
31129;DHT22;17777;48.770;8.944;2024-03-25T15:16:30;17.70;36.60
31129;DHT22;17777;48.770;8.944;2024-03-25T15:18:56;17.70;36.60
31129;DHT22;17777;48.770;8.944;2024-03-25T15:21:21;17.70;35.70
31129;DHT22;17777;48.770;8.944;2024-03-25T15:23:48;17.70;36.30
31129;DHT22;17777;48.770;8.944;2024-03-25T15:26:13;17.60;36.40
31129;DHT22;17777;48.770;8.944;2024-03-25T15:28:40;17.60;36.80
31129;DHT22;17777;48.770;8.944;2024-03-25T15:31:05;17.60;36.80